sensor_id;sensor_type;location;lat;lon;timestamp;P1;durP1;ratioP1;P2;durP2;ratioP2
15818;SDS011;8010;53.986;12.106;2023-06-10T00:02:09;2.83;;;1.50;;
15818;SDS011;8010;53.986;12.106;2023-06-10T00:04:35;2.63;;;1.40;;
15818;SDS011;8010;53.986;12.106;2023-06-10T00:07:04;2.87;;;1.20;;
15818;SDS011;8010;53.986;12.106;2023-06-10T00:09:36;3.93;;;1.37;;
15818;SDS011;8010;53.986;12.106;2023-06-10T00:12:05;2.90;;;1.27;;
15818;SDS011;8010;53.986;12.106;2023-06-10T00:14:32;3.97;;;1.30;;
15818;SDS011;8010;53.986;12.106;2023-06-10T00:16:58;6.67;;;1.63;;
15818;SDS011;8010;53.986;12.106;2023-06-10T00:19:24;4.23;;;1.33;;
15818;SDS011;8010;53.986;12.106;2023-06-10T00:21:50;4.20;;;1.67;;
15818;SDS011;8010;53.986;12.106;2023-06-10T00:24:17;3.77;;;1.57;;
15818;SDS011;8010;53.986;12.106;2023-06-10T00:26:43;3.90;;;1.40;;
15818;SDS011;8010;53.986;12.106;2023-06-10T00:29:09;1.93;;;1.30;;
15818;SDS011;8010;53.986;12.106;2023-06-10T00:31:35;1.93;;;1.23;;
15818;SDS011;8010;53.986;12.106;2023-06-10T00:34:01;3.80;;;1.50;;
15818;SDS011;8010;53.986;12.106;2023-06-10T00:36:27;3.20;;;1.23;;
15818;SDS011;8010;53.986;12.106;2023-06-10T00:38:53;4.23;;;1.50;;
15818;SDS011;8010;53.986;12.106;2023-06-10T00:41:19;5.27;;;1.60;;
15818;SDS011;8010;53.986;12.106;2023-06-10T00:43:45;2.87;;;1.27;;
15818;SDS011;8010;53.986;12.106;2023-06-10T00:46:11;2.93;;;1.50;;
15818;SDS011;8010;53.986;12.106;2023-06-10T00:48:37;2.80;;;1.20;;
15818;SDS011;8010;53.986;12.106;2023-06-10T00:51:04;2.87;;;1.40;;
15818;SDS011;8010;53.986;12.106;2023-06-10T00:53:30;2.87;;;1.13;;
15818;SDS011;8010;53.986;12.106;2023-06-10T00:55:57;3.70;;;1.20;;
15818;SDS011;8010;53.986;12.106;2023-06-10T00:58:23;2.83;;;1.20;;
15818;SDS011;8010;53.986;12.106;2023-06-10T01:00:50;4.37;;;1.40;;
15818;SDS011;8010;53.986;12.106;2023-06-10T01:03:16;4.50;;;1.17;;
15818;SDS011;8010;53.986;12.106;2023-06-10T01:05:42;2.37;;;1.10;;
15818;SDS011;8010;53.986;12.106;2023-06-10T01:10:44;3.03;;;1.00;;
15818;SDS011;8010;53.986;12.106;2023-06-10T01:13:16;2.67;;;1.40;;
15818;SDS011;8010;53.986;12.106;2023-06-10T01:15:43;3.90;;;0.90;;
15818;SDS011;8010;53.986;12.106;2023-06-10T01:18:09;3.07;;;1.30;;
15818;SDS011;8010;53.986;12.106;2023-06-10T01:20:40;2.10;;;1.20;;
15818;SDS011;8010;53.986;12.106;2023-06-10T01:23:08;3.87;;;1.10;;
15818;SDS011;8010;53.986;12.106;2023-06-10T01:25:42;3.40;;;1.30;;
15818;SDS011;8010;53.986;12.106;2023-06-10T01:28:14;2.97;;;1.17;;
15818;SDS011;8010;53.986;12.106;2023-06-10T01:30:59;3.30;;;1.37;;
15818;SDS011;8010;53.986;12.106;2023-06-10T01:33:58;4.63;;;1.03;;
15818;SDS011;8010;53.986;12.106;2023-06-10T01:36:24;4.87;;;1.10;;
15818;SDS011;8010;53.986;12.106;2023-06-10T01:38:51;4.30;;;1.20;;
15818;SDS011;8010;53.986;12.106;2023-06-10T01:44:40;3.27;;;1.00;;
15818;SDS011;8010;53.986;12.106;2023-06-10T01:47:06;2.23;;;1.17;;
15818;SDS011;8010;53.986;12.106;2023-06-10T01:49:32;6.20;;;1.40;;
15818;SDS011;8010;53.986;12.106;2023-06-10T01:51:58;2.27;;;1.03;;
15818;SDS011;8010;53.986;12.106;2023-06-10T01:54:23;2.13;;;0.97;;
15818;SDS011;8010;53.986;12.106;2023-06-10T01:56:49;1.87;;;0.90;;
15818;SDS011;8010;53.986;12.106;2023-06-10T01:59:14;5.77;;;1.37;;
15818;SDS011;8010;53.986;12.106;2023-06-10T02:01:40;4.63;;;1.20;;
15818;SDS011;8010;53.986;12.106;2023-06-10T02:04:06;7.33;;;1.70;;
15818;SDS011;8010;53.986;12.106;2023-06-10T02:06:31;5.10;;;1.20;;
15818;SDS011;8010;53.986;12.106;2023-06-10T02:08:57;2.40;;;0.90;;
15818;SDS011;8010;53.986;12.106;2023-06-10T02:11:23;3.47;;;1.10;;
15818;SDS011;8010;53.986;12.106;2023-06-10T02:13:48;3.07;;;0.90;;
15818;SDS011;8010;53.986;12.106;2023-06-10T02:16:14;5.17;;;1.23;;
15818;SDS011;8010;53.986;12.106;2023-06-10T02:18:41;3.13;;;1.00;;
15818;SDS011;8010;53.986;12.106;2023-06-10T02:21:08;3.87;;;1.10;;
15818;SDS011;8010;53.986;12.106;2023-06-10T02:23:33;0.83;;;0.67;;
15818;SDS011;8010;53.986;12.106;2023-06-10T02:25:59;3.20;;;1.10;;
15818;SDS011;8010;53.986;12.106;2023-06-10T02:28:25;6.83;;;1.40;;
15818;SDS011;8010;53.986;12.106;2023-06-10T02:30:51;7.13;;;1.40;;
15818;SDS011;8010;53.986;12.106;2023-06-10T02:33:16;5.37;;;1.17;;
15818;SDS011;8010;53.986;12.106;2023-06-10T02:35:42;6.70;;;1.57;;
15818;SDS011;8010;53.986;12.106;2023-06-10T02:38:08;4.83;;;1.33;;
15818;SDS011;8010;53.986;12.106;2023-06-10T02:40:33;5.47;;;1.13;;
15818;SDS011;8010;53.986;12.106;2023-06-10T02:42:59;3.10;;;0.93;;
15818;SDS011;8010;53.986;12.106;2023-06-10T02:45:24;1.73;;;0.90;;
15818;SDS011;8010;53.986;12.106;2023-06-10T02:47:50;2.30;;;1.30;;
15818;SDS011;8010;53.986;12.106;2023-06-10T02:50:15;4.60;;;1.00;;
15818;SDS011;8010;53.986;12.106;2023-06-10T02:52:41;2.20;;;1.00;;
15818;SDS011;8010;53.986;12.106;2023-06-10T02:55:07;1.77;;;1.10;;
15818;SDS011;8010;53.986;12.106;2023-06-10T02:57:32;3.80;;;1.10;;
15818;SDS011;8010;53.986;12.106;2023-06-10T02:59:58;2.53;;;1.10;;
15818;SDS011;8010;53.986;12.106;2023-06-10T03:02:24;3.13;;;1.20;;
15818;SDS011;8010;53.986;12.106;2023-06-10T03:04:53;3.03;;;0.90;;
15818;SDS011;8010;53.986;12.106;2023-06-10T03:07:23;5.47;;;1.20;;
15818;SDS011;8010;53.986;12.106;2023-06-10T03:09:48;3.80;;;0.90;;
15818;SDS011;8010;53.986;12.106;2023-06-10T03:12:15;4.10;;;0.93;;
15818;SDS011;8010;53.986;12.106;2023-06-10T03:14:41;9.07;;;1.30;;
15818;SDS011;8010;53.986;12.106;2023-06-10T03:17:06;5.50;;;1.20;;
15818;SDS011;8010;53.986;12.106;2023-06-10T03:19:33;4.93;;;1.20;;
15818;SDS011;8010;53.986;12.106;2023-06-10T03:22:12;19.43;;;1.77;;
15818;SDS011;8010;53.986;12.106;2023-06-10T03:24:40;2.80;;;1.30;;
15818;SDS011;8010;53.986;12.106;2023-06-10T03:27:12;2.83;;;0.90;;
15818;SDS011;8010;53.986;12.106;2023-06-10T03:29:38;3.20;;;1.10;;
15818;SDS011;8010;53.986;12.106;2023-06-10T03:32:04;2.60;;;1.33;;
15818;SDS011;8010;53.986;12.106;2023-06-10T03:34:30;2.37;;;1.17;;
15818;SDS011;8010;53.986;12.106;2023-06-10T03:36:56;2.77;;;0.80;;
15818;SDS011;8010;53.986;12.106;2023-06-10T03:39:22;3.63;;;1.00;;
15818;SDS011;8010;53.986;12.106;2023-06-10T03:41:48;3.00;;;1.03;;
15818;SDS011;8010;53.986;12.106;2023-06-10T03:44:14;3.70;;;1.10;;
15818;SDS011;8010;53.986;12.106;2023-06-10T03:46:40;2.63;;;1.07;;
15818;SDS011;8010;53.986;12.106;2023-06-10T03:49:05;1.90;;;1.00;;
15818;SDS011;8010;53.986;12.106;2023-06-10T03:51:31;2.57;;;1.03;;
15818;SDS011;8010;53.986;12.106;2023-06-10T03:53:57;7.17;;;1.57;;
15818;SDS011;8010;53.986;12.106;2023-06-10T03:56:22;5.13;;;1.23;;
15818;SDS011;8010;53.986;12.106;2023-06-10T03:58:48;8.57;;;1.17;;
15818;SDS011;8010;53.986;12.106;2023-06-10T04:01:14;5.47;;;1.30;;
15818;SDS011;8010;53.986;12.106;2023-06-10T04:03:39;3.73;;;1.67;;
15818;SDS011;8010;53.986;12.106;2023-06-10T04:06:06;4.43;;;1.20;;
15818;SDS011;8010;53.986;12.106;2023-06-10T04:08:32;2.60;;;1.37;;
15818;SDS011;8010;53.986;12.106;2023-06-10T04:10:58;3.73;;;0.90;;
15818;SDS011;8010;53.986;12.106;2023-06-10T04:13:23;3.13;;;1.40;;
15818;SDS011;8010;53.986;12.106;2023-06-10T04:15:49;4.63;;;1.00;;
15818;SDS011;8010;53.986;12.106;2023-06-10T04:18:14;5.20;;;1.40;;
15818;SDS011;8010;53.986;12.106;2023-06-10T04:20:40;3.50;;;1.17;;
15818;SDS011;8010;53.986;12.106;2023-06-10T04:23:06;4.50;;;1.37;;
15818;SDS011;8010;53.986;12.106;2023-06-10T04:25:32;2.70;;;1.37;;
15818;SDS011;8010;53.986;12.106;2023-06-10T04:27:57;5.33;;;1.17;;
15818;SDS011;8010;53.986;12.106;2023-06-10T04:30:23;5.73;;;1.30;;
15818;SDS011;8010;53.986;12.106;2023-06-10T04:32:48;2.23;;;1.17;;
15818;SDS011;8010;53.986;12.106;2023-06-10T04:35:14;4.70;;;1.53;;
15818;SDS011;8010;53.986;12.106;2023-06-10T04:37:40;4.57;;;1.40;;
15818;SDS011;8010;53.986;12.106;2023-06-10T04:40:07;4.67;;;1.27;;
15818;SDS011;8010;53.986;12.106;2023-06-10T04:42:33;5.17;;;1.60;;
15818;SDS011;8010;53.986;12.106;2023-06-10T04:44:59;6.27;;;2.00;;
15818;SDS011;8010;53.986;12.106;2023-06-10T04:47:25;5.60;;;1.40;;
15818;SDS011;8010;53.986;12.106;2023-06-10T04:49:51;3.93;;;1.47;;
15818;SDS011;8010;53.986;12.106;2023-06-10T04:52:17;4.77;;;1.40;;
15818;SDS011;8010;53.986;12.106;2023-06-10T04:54:43;4.13;;;1.63;;
15818;SDS011;8010;53.986;12.106;2023-06-10T04:57:08;4.50;;;1.40;;
15818;SDS011;8010;53.986;12.106;2023-06-10T04:59:36;4.63;;;1.37;;
15818;SDS011;8010;53.986;12.106;2023-06-10T05:02:03;5.13;;;1.30;;
15818;SDS011;8010;53.986;12.106;2023-06-10T05:04:29;8.63;;;1.63;;
15818;SDS011;8010;53.986;12.106;2023-06-10T05:06:55;5.30;;;1.90;;
15818;SDS011;8010;53.986;12.106;2023-06-10T05:09:21;4.70;;;1.27;;
15818;SDS011;8010;53.986;12.106;2023-06-10T05:11:46;5.93;;;1.40;;
15818;SDS011;8010;53.986;12.106;2023-06-10T05:14:12;4.90;;;1.50;;
15818;SDS011;8010;53.986;12.106;2023-06-10T05:16:37;5.70;;;1.50;;
15818;SDS011;8010;53.986;12.106;2023-06-10T05:19:03;5.50;;;2.10;;
15818;SDS011;8010;53.986;12.106;2023-06-10T05:21:29;4.47;;;1.50;;
15818;SDS011;8010;53.986;12.106;2023-06-10T05:23:55;9.43;;;1.87;;
15818;SDS011;8010;53.986;12.106;2023-06-10T05:26:21;4.97;;;1.57;;
15818;SDS011;8010;53.986;12.106;2023-06-10T05:28:47;4.93;;;1.40;;
15818;SDS011;8010;53.986;12.106;2023-06-10T05:31:12;6.33;;;1.90;;
15818;SDS011;8010;53.986;12.106;2023-06-10T05:33:38;6.00;;;1.50;;
15818;SDS011;8010;53.986;12.106;2023-06-10T05:36:04;4.37;;;1.57;;
15818;SDS011;8010;53.986;12.106;2023-06-10T05:38:30;6.63;;;1.70;;
15818;SDS011;8010;53.986;12.106;2023-06-10T05:40:56;3.57;;;1.30;;
15818;SDS011;8010;53.986;12.106;2023-06-10T05:43:22;6.17;;;1.40;;
15818;SDS011;8010;53.986;12.106;2023-06-10T05:45:47;3.77;;;1.23;;
15818;SDS011;8010;53.986;12.106;2023-06-10T05:48:13;5.13;;;1.70;;
15818;SDS011;8010;53.986;12.106;2023-06-10T05:50:39;3.70;;;1.57;;
15818;SDS011;8010;53.986;12.106;2023-06-10T05:53:07;4.77;;;1.40;;
15818;SDS011;8010;53.986;12.106;2023-06-10T05:55:39;5.50;;;1.83;;
15818;SDS011;8010;53.986;12.106;2023-06-10T05:58:06;6.70;;;1.50;;
15818;SDS011;8010;53.986;12.106;2023-06-10T06:00:32;4.40;;;2.10;;
15818;SDS011;8010;53.986;12.106;2023-06-10T06:02:57;5.00;;;1.50;;
15818;SDS011;8010;53.986;12.106;2023-06-10T06:05:23;6.53;;;1.90;;
15818;SDS011;8010;53.986;12.106;2023-06-10T06:07:49;8.43;;;1.63;;
15818;SDS011;8010;53.986;12.106;2023-06-10T06:10:16;4.60;;;1.40;;
15818;SDS011;8010;53.986;12.106;2023-06-10T06:12:42;4.50;;;2.30;;
15818;SDS011;8010;53.986;12.106;2023-06-10T06:15:08;5.63;;;1.63;;
15818;SDS011;8010;53.986;12.106;2023-06-10T06:17:35;6.70;;;2.23;;
15818;SDS011;8010;53.986;12.106;2023-06-10T06:20:01;6.90;;;1.73;;
15818;SDS011;8010;53.986;12.106;2023-06-10T06:22:27;5.83;;;1.77;;
15818;SDS011;8010;53.986;12.106;2023-06-10T06:24:52;3.87;;;1.40;;
15818;SDS011;8010;53.986;12.106;2023-06-10T06:27:18;3.67;;;1.57;;
15818;SDS011;8010;53.986;12.106;2023-06-10T06:29:44;4.80;;;1.37;;
15818;SDS011;8010;53.986;12.106;2023-06-10T06:32:09;3.30;;;1.33;;
15818;SDS011;8010;53.986;12.106;2023-06-10T06:34:35;5.17;;;1.70;;
15818;SDS011;8010;53.986;12.106;2023-06-10T06:37:00;5.07;;;1.63;;
15818;SDS011;8010;53.986;12.106;2023-06-10T06:39:26;4.93;;;1.70;;
15818;SDS011;8010;53.986;12.106;2023-06-10T06:41:51;6.47;;;1.70;;
15818;SDS011;8010;53.986;12.106;2023-06-10T06:44:17;5.07;;;1.90;;
15818;SDS011;8010;53.986;12.106;2023-06-10T06:46:42;6.33;;;1.90;;
15818;SDS011;8010;53.986;12.106;2023-06-10T06:49:08;5.10;;;1.60;;
15818;SDS011;8010;53.986;12.106;2023-06-10T06:51:33;5.67;;;1.87;;
15818;SDS011;8010;53.986;12.106;2023-06-10T06:53:59;5.60;;;1.87;;
15818;SDS011;8010;53.986;12.106;2023-06-10T06:56:24;5.30;;;1.77;;
15818;SDS011;8010;53.986;12.106;2023-06-10T06:58:52;6.73;;;2.37;;
15818;SDS011;8010;53.986;12.106;2023-06-10T07:01:17;6.37;;;2.40;;
15818;SDS011;8010;53.986;12.106;2023-06-10T07:03:43;4.87;;;1.73;;
15818;SDS011;8010;53.986;12.106;2023-06-10T07:06:08;2.63;;;1.87;;
15818;SDS011;8010;53.986;12.106;2023-06-10T07:08:34;5.03;;;1.87;;
15818;SDS011;8010;53.986;12.106;2023-06-10T07:10:59;6.53;;;1.77;;
15818;SDS011;8010;53.986;12.106;2023-06-10T07:13:25;3.87;;;1.83;;
15818;SDS011;8010;53.986;12.106;2023-06-10T07:15:50;3.70;;;1.53;;
15818;SDS011;8010;53.986;12.106;2023-06-10T07:18:16;4.20;;;1.67;;
15818;SDS011;8010;53.986;12.106;2023-06-10T07:20:44;7.57;;;1.87;;
15818;SDS011;8010;53.986;12.106;2023-06-10T07:23:10;4.20;;;1.70;;
15818;SDS011;8010;53.986;12.106;2023-06-10T07:25:35;3.60;;;2.07;;
15818;SDS011;8010;53.986;12.106;2023-06-10T07:28:01;5.37;;;1.77;;
15818;SDS011;8010;53.986;12.106;2023-06-10T07:30:27;3.37;;;1.73;;
15818;SDS011;8010;53.986;12.106;2023-06-10T07:32:53;7.80;;;2.30;;
15818;SDS011;8010;53.986;12.106;2023-06-10T07:35:18;3.10;;;2.10;;
15818;SDS011;8010;53.986;12.106;2023-06-10T07:37:44;7.50;;;2.10;;
15818;SDS011;8010;53.986;12.106;2023-06-10T07:40:10;6.83;;;2.07;;
15818;SDS011;8010;53.986;12.106;2023-06-10T07:42:36;4.93;;;2.10;;
15818;SDS011;8010;53.986;12.106;2023-06-10T07:45:02;7.33;;;2.00;;
15818;SDS011;8010;53.986;12.106;2023-06-10T07:47:29;7.20;;;2.00;;
15818;SDS011;8010;53.986;12.106;2023-06-10T07:49:55;5.20;;;2.27;;
15818;SDS011;8010;53.986;12.106;2023-06-10T07:52:20;5.97;;;2.10;;
15818;SDS011;8010;53.986;12.106;2023-06-10T07:54:46;7.07;;;2.30;;
15818;SDS011;8010;53.986;12.106;2023-06-10T07:57:11;5.30;;;2.40;;
15818;SDS011;8010;53.986;12.106;2023-06-10T07:59:37;5.80;;;2.33;;
15818;SDS011;8010;53.986;12.106;2023-06-10T08:02:03;4.87;;;2.10;;
15818;SDS011;8010;53.986;12.106;2023-06-10T08:04:29;4.53;;;2.10;;
15818;SDS011;8010;53.986;12.106;2023-06-10T08:06:55;5.57;;;1.90;;
15818;SDS011;8010;53.986;12.106;2023-06-10T08:09:21;6.13;;;2.43;;
15818;SDS011;8010;53.986;12.106;2023-06-10T08:11:48;4.83;;;2.00;;
15818;SDS011;8010;53.986;12.106;2023-06-10T08:14:14;9.17;;;2.60;;
15818;SDS011;8010;53.986;12.106;2023-06-10T08:16:39;4.43;;;2.00;;
15818;SDS011;8010;53.986;12.106;2023-06-10T08:19:05;4.47;;;2.20;;
15818;SDS011;8010;53.986;12.106;2023-06-10T08:21:31;6.33;;;2.27;;
15818;SDS011;8010;53.986;12.106;2023-06-10T08:23:56;7.07;;;2.43;;
15818;SDS011;8010;53.986;12.106;2023-06-10T08:26:22;10.57;;;3.00;;
15818;SDS011;8010;53.986;12.106;2023-06-10T08:28:48;5.50;;;2.20;;
15818;SDS011;8010;53.986;12.106;2023-06-10T08:31:13;4.77;;;2.33;;
15818;SDS011;8010;53.986;12.106;2023-06-10T08:33:39;5.30;;;2.10;;
15818;SDS011;8010;53.986;12.106;2023-06-10T08:36:06;8.33;;;2.47;;
15818;SDS011;8010;53.986;12.106;2023-06-10T08:38:31;6.20;;;2.40;;
15818;SDS011;8010;53.986;12.106;2023-06-10T08:40:58;5.17;;;2.20;;
15818;SDS011;8010;53.986;12.106;2023-06-10T08:43:44;4.23;;;2.20;;
15818;SDS011;8010;53.986;12.106;2023-06-10T08:46:16;5.50;;;2.57;;
15818;SDS011;8010;53.986;12.106;2023-06-10T08:48:42;5.20;;;2.20;;
15818;SDS011;8010;53.986;12.106;2023-06-10T08:51:11;4.77;;;2.20;;
15818;SDS011;8010;53.986;12.106;2023-06-10T08:53:42;4.17;;;2.27;;
15818;SDS011;8010;53.986;12.106;2023-06-10T08:56:19;4.47;;;1.90;;
15818;SDS011;8010;53.986;12.106;2023-06-10T08:58:46;4.17;;;2.30;;
15818;SDS011;8010;53.986;12.106;2023-06-10T09:01:12;7.43;;;2.60;;
15818;SDS011;8010;53.986;12.106;2023-06-10T09:03:39;7.43;;;2.83;;
15818;SDS011;8010;53.986;12.106;2023-06-10T09:06:06;6.03;;;2.63;;
15818;SDS011;8010;53.986;12.106;2023-06-10T09:08:35;4.87;;;2.63;;
15818;SDS011;8010;53.986;12.106;2023-06-10T09:11:01;5.07;;;2.37;;
15818;SDS011;8010;53.986;12.106;2023-06-10T09:13:26;6.33;;;2.77;;
15818;SDS011;8010;53.986;12.106;2023-06-10T09:15:52;4.10;;;2.53;;
15818;SDS011;8010;53.986;12.106;2023-06-10T09:18:17;3.90;;;1.93;;
15818;SDS011;8010;53.986;12.106;2023-06-10T09:20:43;3.73;;;2.47;;
15818;SDS011;8010;53.986;12.106;2023-06-10T09:23:09;6.67;;;2.17;;
15818;SDS011;8010;53.986;12.106;2023-06-10T09:25:36;6.00;;;2.47;;
15818;SDS011;8010;53.986;12.106;2023-06-10T09:28:03;9.23;;;3.33;;
15818;SDS011;8010;53.986;12.106;2023-06-10T09:32:56;9.77;;;2.67;;
15818;SDS011;8010;53.986;12.106;2023-06-10T09:35:26;2.97;;;2.40;;
15818;SDS011;8010;53.986;12.106;2023-06-10T09:37:53;6.03;;;2.67;;
15818;SDS011;8010;53.986;12.106;2023-06-10T09:40:23;7.23;;;2.67;;
15818;SDS011;8010;53.986;12.106;2023-06-10T09:42:53;4.97;;;2.47;;
15818;SDS011;8010;53.986;12.106;2023-06-10T09:45:20;5.67;;;2.50;;
15818;SDS011;8010;53.986;12.106;2023-06-10T09:47:47;9.10;;;3.13;;
15818;SDS011;8010;53.986;12.106;2023-06-10T09:50:16;5.33;;;2.57;;
15818;SDS011;8010;53.986;12.106;2023-06-10T09:52:42;2.90;;;2.07;;
15818;SDS011;8010;53.986;12.106;2023-06-10T09:55:08;3.77;;;2.53;;
15818;SDS011;8010;53.986;12.106;2023-06-10T09:57:35;7.80;;;2.20;;
15818;SDS011;8010;53.986;12.106;2023-06-10T10:00:05;6.73;;;2.70;;
15818;SDS011;8010;53.986;12.106;2023-06-10T10:02:32;5.33;;;2.77;;
15818;SDS011;8010;53.986;12.106;2023-06-10T10:05:08;6.37;;;2.70;;
15818;SDS011;8010;53.986;12.106;2023-06-10T10:07:33;6.77;;;2.50;;
15818;SDS011;8010;53.986;12.106;2023-06-10T10:09:59;4.60;;;3.07;;
15818;SDS011;8010;53.986;12.106;2023-06-10T10:12:25;8.13;;;2.60;;
15818;SDS011;8010;53.986;12.106;2023-06-10T10:14:51;8.63;;;3.00;;
15818;SDS011;8010;53.986;12.106;2023-06-10T10:17:18;4.30;;;2.50;;
15818;SDS011;8010;53.986;12.106;2023-06-10T10:22:34;4.47;;;2.10;;
15818;SDS011;8010;53.986;12.106;2023-06-10T10:28:11;3.90;;;2.37;;
15818;SDS011;8010;53.986;12.106;2023-06-10T10:30:40;3.47;;;2.27;;
15818;SDS011;8010;53.986;12.106;2023-06-10T10:33:12;5.80;;;2.40;;
15818;SDS011;8010;53.986;12.106;2023-06-10T10:35:41;5.00;;;2.50;;
15818;SDS011;8010;53.986;12.106;2023-06-10T10:38:08;4.87;;;2.33;;
15818;SDS011;8010;53.986;12.106;2023-06-10T10:40:35;8.87;;;2.47;;
15818;SDS011;8010;53.986;12.106;2023-06-10T10:43:01;4.27;;;2.50;;
15818;SDS011;8010;53.986;12.106;2023-06-10T10:45:28;5.50;;;2.37;;
15818;SDS011;8010;53.986;12.106;2023-06-10T10:47:54;3.70;;;2.77;;
15818;SDS011;8010;53.986;12.106;2023-06-10T10:50:21;3.20;;;2.37;;
15818;SDS011;8010;53.986;12.106;2023-06-10T10:52:57;4.23;;;2.43;;
15818;SDS011;8010;53.986;12.106;2023-06-10T10:55:25;3.23;;;2.73;;
15818;SDS011;8010;53.986;12.106;2023-06-10T10:57:55;4.57;;;2.70;;
15818;SDS011;8010;53.986;12.106;2023-06-10T11:03:14;4.57;;;2.30;;
15818;SDS011;8010;53.986;12.106;2023-06-10T11:05:45;3.60;;;2.80;;
15818;SDS011;8010;53.986;12.106;2023-06-10T11:08:15;4.67;;;2.37;;
15818;SDS011;8010;53.986;12.106;2023-06-10T11:11:02;5.80;;;2.70;;
15818;SDS011;8010;53.986;12.106;2023-06-10T11:13:43;6.57;;;2.80;;
15818;SDS011;8010;53.986;12.106;2023-06-10T11:16:25;4.57;;;2.73;;
15818;SDS011;8010;53.986;12.106;2023-06-10T11:18:53;4.93;;;2.67;;
15818;SDS011;8010;53.986;12.106;2023-06-10T11:21:19;3.63;;;2.07;;
15818;SDS011;8010;53.986;12.106;2023-06-10T11:23:45;7.97;;;2.70;;
15818;SDS011;8010;53.986;12.106;2023-06-10T11:26:20;6.67;;;2.97;;
15818;SDS011;8010;53.986;12.106;2023-06-10T11:31:22;4.57;;;2.50;;
15818;SDS011;8010;53.986;12.106;2023-06-10T11:33:58;8.13;;;3.00;;
15818;SDS011;8010;53.986;12.106;2023-06-10T11:36:26;3.67;;;2.50;;
15818;SDS011;8010;53.986;12.106;2023-06-10T11:39:02;5.33;;;2.37;;
15818;SDS011;8010;53.986;12.106;2023-06-10T11:41:30;6.67;;;2.83;;
15818;SDS011;8010;53.986;12.106;2023-06-10T11:43:56;4.60;;;2.50;;
15818;SDS011;8010;53.986;12.106;2023-06-10T11:46:36;4.77;;;2.43;;
15818;SDS011;8010;53.986;12.106;2023-06-10T11:49:02;6.60;;;3.60;;
15818;SDS011;8010;53.986;12.106;2023-06-10T11:51:30;3.37;;;2.20;;
15818;SDS011;8010;53.986;12.106;2023-06-10T11:54:00;3.07;;;2.60;;
15818;SDS011;8010;53.986;12.106;2023-06-10T11:56:26;4.40;;;2.50;;
15818;SDS011;8010;53.986;12.106;2023-06-10T11:58:53;7.00;;;2.87;;
15818;SDS011;8010;53.986;12.106;2023-06-10T12:01:25;5.00;;;2.50;;
15818;SDS011;8010;53.986;12.106;2023-06-10T12:04:07;6.50;;;2.67;;
15818;SDS011;8010;53.986;12.106;2023-06-10T12:06:41;3.60;;;2.37;;
15818;SDS011;8010;53.986;12.106;2023-06-10T12:09:13;6.03;;;2.27;;
15818;SDS011;8010;53.986;12.106;2023-06-10T12:11:39;4.50;;;2.40;;
15818;SDS011;8010;53.986;12.106;2023-06-10T12:14:05;6.70;;;2.70;;
15818;SDS011;8010;53.986;12.106;2023-06-10T12:16:31;3.37;;;2.80;;
15818;SDS011;8010;53.986;12.106;2023-06-10T12:19:00;3.93;;;2.27;;
15818;SDS011;8010;53.986;12.106;2023-06-10T12:21:28;3.83;;;2.93;;
15818;SDS011;8010;53.986;12.106;2023-06-10T12:24:04;8.63;;;3.13;;
15818;SDS011;8010;53.986;12.106;2023-06-10T12:26:42;4.03;;;2.60;;
15818;SDS011;8010;53.986;12.106;2023-06-10T12:29:22;4.93;;;3.00;;
15818;SDS011;8010;53.986;12.106;2023-06-10T12:34:19;7.13;;;3.50;;
15818;SDS011;8010;53.986;12.106;2023-06-10T12:36:48;4.07;;;2.90;;
15818;SDS011;8010;53.986;12.106;2023-06-10T12:39:14;3.63;;;2.53;;
15818;SDS011;8010;53.986;12.106;2023-06-10T12:41:40;5.57;;;3.10;;
15818;SDS011;8010;53.986;12.106;2023-06-10T12:44:05;5.00;;;2.87;;
15818;SDS011;8010;53.986;12.106;2023-06-10T12:46:37;4.03;;;2.53;;
15818;SDS011;8010;53.986;12.106;2023-06-10T12:49:03;5.63;;;3.00;;
15818;SDS011;8010;53.986;12.106;2023-06-10T12:51:28;4.63;;;2.80;;
15818;SDS011;8010;53.986;12.106;2023-06-10T12:53:54;4.97;;;2.60;;
15818;SDS011;8010;53.986;12.106;2023-06-10T12:56:20;4.00;;;2.20;;
15818;SDS011;8010;53.986;12.106;2023-06-10T12:58:47;3.43;;;2.13;;
15818;SDS011;8010;53.986;12.106;2023-06-10T13:01:13;4.70;;;2.83;;
15818;SDS011;8010;53.986;12.106;2023-06-10T13:03:38;5.03;;;2.50;;
15818;SDS011;8010;53.986;12.106;2023-06-10T13:06:05;3.90;;;2.63;;
15818;SDS011;8010;53.986;12.106;2023-06-10T13:08:31;6.03;;;2.83;;
15818;SDS011;8010;53.986;12.106;2023-06-10T13:10:57;3.80;;;3.03;;
15818;SDS011;8010;53.986;12.106;2023-06-10T13:13:23;5.43;;;3.10;;
15818;SDS011;8010;53.986;12.106;2023-06-10T13:15:49;4.87;;;2.80;;
15818;SDS011;8010;53.986;12.106;2023-06-10T13:18:15;5.33;;;2.37;;
15818;SDS011;8010;53.986;12.106;2023-06-10T13:20:42;2.80;;;2.50;;
15818;SDS011;8010;53.986;12.106;2023-06-10T13:23:08;2.93;;;2.30;;
15818;SDS011;8010;53.986;12.106;2023-06-10T13:25:34;2.63;;;2.30;;
15818;SDS011;8010;53.986;12.106;2023-06-10T13:27:59;4.00;;;2.60;;
15818;SDS011;8010;53.986;12.106;2023-06-10T13:30:25;6.43;;;2.73;;
15818;SDS011;8010;53.986;12.106;2023-06-10T13:32:51;4.90;;;2.43;;
15818;SDS011;8010;53.986;12.106;2023-06-10T13:35:17;3.37;;;2.80;;
15818;SDS011;8010;53.986;12.106;2023-06-10T13:37:42;4.03;;;2.20;;
15818;SDS011;8010;53.986;12.106;2023-06-10T13:40:08;3.90;;;2.27;;
15818;SDS011;8010;53.986;12.106;2023-06-10T13:42:34;6.30;;;2.40;;
15818;SDS011;8010;53.986;12.106;2023-06-10T13:45:01;4.33;;;2.20;;
15818;SDS011;8010;53.986;12.106;2023-06-10T13:47:27;6.77;;;2.57;;
15818;SDS011;8010;53.986;12.106;2023-06-10T13:49:53;5.90;;;2.30;;
15818;SDS011;8010;53.986;12.106;2023-06-10T13:52:18;3.40;;;2.60;;
15818;SDS011;8010;53.986;12.106;2023-06-10T13:54:44;4.70;;;2.50;;
15818;SDS011;8010;53.986;12.106;2023-06-10T13:57:09;4.70;;;2.50;;
15818;SDS011;8010;53.986;12.106;2023-06-10T13:59:35;4.10;;;2.30;;
15818;SDS011;8010;53.986;12.106;2023-06-10T14:02:01;6.13;;;2.58;;
15818;SDS011;8010;53.986;12.106;2023-06-10T14:04:26;6.45;;;2.42;;
15818;SDS011;8010;53.986;12.106;2023-06-10T14:06:52;7.28;;;1.90;;
15818;SDS011;8010;53.986;12.106;2023-06-10T14:09:17;4.43;;;2.55;;
15818;SDS011;8010;53.986;12.106;2023-06-10T14:11:44;3.67;;;2.33;;
15818;SDS011;8010;53.986;12.106;2023-06-10T14:14:09;5.10;;;2.85;;
15818;SDS011;8010;53.986;12.106;2023-06-10T14:16:35;7.38;;;2.67;;
15818;SDS011;8010;53.986;12.106;2023-06-10T14:19:01;6.18;;;2.45;;
15818;SDS011;8010;53.986;12.106;2023-06-10T14:21:26;4.38;;;2.60;;
15818;SDS011;8010;53.986;12.106;2023-06-10T14:23:51;5.67;;;2.30;;
15818;SDS011;8010;53.986;12.106;2023-06-10T14:26:18;6.47;;;2.50;;
15818;SDS011;8010;53.986;12.106;2023-06-10T14:28:44;6.87;;;1.83;;
15818;SDS011;8010;53.986;12.106;2023-06-10T14:31:09;5.87;;;2.60;;
15818;SDS011;8010;53.986;12.106;2023-06-10T14:33:35;6.23;;;2.13;;
15818;SDS011;8010;53.986;12.106;2023-06-10T14:36:01;4.77;;;2.20;;
15818;SDS011;8010;53.986;12.106;2023-06-10T14:38:27;5.67;;;2.40;;
15818;SDS011;8010;53.986;12.106;2023-06-10T14:40:52;7.87;;;2.43;;
15818;SDS011;8010;53.986;12.106;2023-06-10T14:43:18;4.57;;;1.90;;
15818;SDS011;8010;53.986;12.106;2023-06-10T14:45:43;2.30;;;2.10;;
15818;SDS011;8010;53.986;12.106;2023-06-10T14:48:10;3.03;;;2.10;;
15818;SDS011;8010;53.986;12.106;2023-06-10T14:50:36;4.43;;;2.20;;
15818;SDS011;8010;53.986;12.106;2023-06-10T14:53:06;6.23;;;2.40;;
15818;SDS011;8010;53.986;12.106;2023-06-10T14:55:31;5.37;;;2.17;;
15818;SDS011;8010;53.986;12.106;2023-06-10T14:57:57;6.37;;;2.27;;
15818;SDS011;8010;53.986;12.106;2023-06-10T15:00:23;5.53;;;2.00;;
15818;SDS011;8010;53.986;12.106;2023-06-10T15:02:49;6.70;;;2.90;;
15818;SDS011;8010;53.986;12.106;2023-06-10T15:05:15;2.43;;;2.20;;
15818;SDS011;8010;53.986;12.106;2023-06-10T15:07:42;6.40;;;2.10;;
15818;SDS011;8010;53.986;12.106;2023-06-10T15:10:08;4.53;;;2.03;;